Kezdőlap
METAR-TAF:

METAR-TAF

Repülőterek :

Fort-de-France, Martinique

földrajzi szélesség: 14-36N, földrajzi hosszúság: 061-00W, magasság: 5 m

Jelenlegi meteorológiai megfigyelések

A jelentés 33 perccel ezelõtt készült, 10:00 UTC
Keleti szél 4 kt
Hőmérséklet 25°C
Páratartalom 94%
Légköri nyomás 1017 hPa
Látótávolság 10 km, vagy több

METAR: TFFF 161000Z AUTO 10004KT 9999 FEW019/// SCT046/// 25/24 Q1017 TEMPO 4000 SHRA BKN018TCU

Idő: 06:33 (10:33 UTC)

Előrejelzés

A jelentés 6 órával és 33 perccel ezelõtt készült, 04:00 UTC
Az előrejelzés 16-én 06 óra UTC és 17-én 06 óra UTC között érvényes
Keleti szél 10 kt
Látótávolság 10 km, vagy több
Kevés felhő 2600 lábon
16-én 09 óra UTC és 16-én 18 óra UTC között ideiglenes
Látótávolság: 4000 m
Szakadozott felhőzet 1800 lábon, Tornyos gomolyfelhő.
záporok

TAF: TFFF 160400Z 1606/1706 10010KT 9999 FEW026 TEMPO 1609/1618 4000 SHRA BKN018TCU

Meteorológiai megfigyelések és előrejelzések több, mint 4000 repülőtéren (METAR és TAF jelentéseket).

A térképen piros és sárga pontok jelzik az elérhető meteorológiai állomásokat.

Mozgassa az egeret a pont fölött, hogy megjelenjen az állomás neve.

Azután kattintson az időjárási megfigyelések és előrejelzések megtekintéséhez.

A térkép megváltoztatása: kattintson a fekete keresztel jelölt zöld gombra ráközelítéshez, a vonallal jelölt zöld gombra távolításhoz, vagy a zöld nyilakra a szomszédos térképek eléréséhez.


METAR-TAF: